Time;durP1;ratioP1;P1;durP2;ratioP2;P2;SDS_P1;SDS_P2;PMS_P1;PMS_P2;Temp;Humidity;BMP_temperature;BMP_pressure;BME280_temperature;BME280_humidity;BME280_pressure;Samples;Min_cycle;Max_cycle;Signal;HPM_P1;HPM_P2
2022/01/29 00:01:02;;;;;;;93.07;39.17;;;;;;;6.00;100.00;102873.66;5004349;28;20096;-71
2022/01/29 00:03:30;;;;;;;90.68;39.13;;;;;;;5.94;100.00;102882.66;5007212;28;20500;-69
2022/01/29 00:05:57;;;;;;;90.70;38.05;;;;;;;5.97;100.00;102866.78;4997657;28;20045;-70
2022/01/29 00:08:23;;;;;;;92.57;38.88;;;;;;;6.03;100.00;102855.06;5009627;28;20041;-70
2022/01/29 00:10:53;;;;;;;86.95;37.55;;;;;;;6.02;100.00;102860.69;5000666;28;20127;-70
2022/01/29 00:13:19;;;;;;;96.43;38.20;;;;;;;6.02;100.00;102841.72;5003070;28;20476;-71
2022/01/29 00:15:44;;;;;;;91.40;38.67;;;;;;;5.96;100.00;102831.81;5009482;28;20327;-70
2022/01/29 00:18:09;;;;;;;90.38;38.03;;;;;;;6.03;100.00;102835.28;5000156;28;20128;-71
2022/01/29 00:20:35;;;;;;;98.10;38.25;;;;;;;5.99;100.00;102825.94;5001830;28;20100;-70
2022/01/29 00:23:00;;;;;;;92.72;38.97;;;;;;;6.03;100.00;102827.16;5003706;28;20041;-70
2022/01/29 00:25:26;;;;;;;84.47;37.28;;;;;;;6.02;100.00;102815.50;5000216;28;20037;-70
2022/01/29 00:27:53;;;;;;;93.57;39.33;;;;;;;6.02;100.00;102820.06;5008173;28;20502;-70
2022/01/29 00:30:19;;;;;;;86.18;36.50;;;;;;;6.01;100.00;102807.59;4995706;28;20052;-71
2022/01/29 00:32:44;;;;;;;100.95;40.30;;;;;;;5.95;100.00;102814.72;5013527;28;20033;-70
2022/01/29 00:35:10;;;;;;;93.47;37.95;;;;;;;5.96;100.00;102815.56;5002523;28;20042;-70
2022/01/29 00:37:36;;;;;;;96.95;40.75;;;;;;;6.01;100.00;102830.06;5007918;28;20072;-71
2022/01/29 00:40:03;;;;;;;99.50;41.03;;;;;;;5.80;100.00;102811.53;4996934;28;20045;-69
2022/01/29 00:42:28;;;;;;;109.90;43.65;;;;;;;5.88;100.00;102819.38;5008960;28;20041;-70
2022/01/29 00:44:53;;;;;;;101.78;39.72;;;;;;;5.84;100.00;102824.38;5001350;28;20033;-70
2022/01/29 00:47:19;;;;;;;108.63;41.40;;;;;;;5.92;100.00;102819.75;4999476;28;20042;-70
2022/01/29 00:49:44;;;;;;;109.88;42.90;;;;;;;5.82;100.00;102812.97;5009177;28;20272;-70
2022/01/29 00:52:10;;;;;;;116.47;43.80;;;;;;;5.84;100.00;102805.44;5013140;28;20057;-70
2022/01/29 00:54:36;;;;;;;106.60;42.42;;;;;;;5.87;100.00;102804.97;5013733;28;20033;-70
2022/01/29 00:57:01;;;;;;;109.40;42.88;;;;;;;5.72;100.00;102793.69;5013899;28;20048;-70
2022/01/29 00:59:27;;;;;;;121.32;44.47;;;;;;;5.74;100.00;102780.75;5004883;28;20096;-70
2022/01/29 01:01:52;;;;;;;115.80;43.20;;;;;;;5.69;100.00;102767.06;4995379;28;20042;-70
2022/01/29 01:04:18;;;;;;;112.85;42.30;;;;;;;5.71;100.00;102775.78;4994739;28;20065;-70
2022/01/29 01:06:43;;;;;;;120.60;45.53;;;;;;;5.72;100.00;102780.16;4994858;28;20577;-70
2022/01/29 01:09:09;;;;;;;128.82;45.83;;;;;;;5.66;100.00;102775.63;4995996;28;20061;-70
2022/01/29 01:11:34;;;;;;;125.53;46.00;;;;;;;5.69;100.00;102767.06;4996441;28;20502;-70
2022/01/29 01:14:00;;;;;;;119.88;43.28;;;;;;;5.70;100.00;102760.59;4996630;28;20418;-70
2022/01/29 01:16:25;;;;;;;127.57;47.78;;;;;;;5.67;100.00;102761.88;4993709;28;20060;-70
2022/01/29 01:18:50;;;;;;;116.88;44.95;;;;;;;5.77;100.00;102755.13;4995803;28;20056;-70
2022/01/29 01:21:16;;;;;;;129.07;47.03;;;;;;;5.72;100.00;102761.19;4995219;28;20053;-71
2022/01/29 01:23:41;;;;;;;124.35;44.33;;;;;;;5.76;100.00;102748.88;4995889;28;20055;-71
2022/01/29 01:26:07;;;;;;;128.77;46.78;;;;;;;5.81;100.00;102743.59;4994843;28;20089;-71
2022/01/29 01:28:33;;;;;;;118.60;45.40;;;;;;;5.82;100.00;102745.28;4995587;28;20038;-71
2022/01/29 01:30:58;;;;;;;126.03;45.80;;;;;;;5.85;100.00;102747.53;4995130;28;20053;-70
2022/01/29 01:33:24;;;;;;;128.57;46.75;;;;;;;5.88;100.00;102744.38;4994036;28;20033;-70
2022/01/29 01:35:53;;;;;;;121.50;43.75;;;;;;;5.97;100.00;102744.94;4992440;28;20788;-71
2022/01/29 01:38:23;;;;;;;120.72;46.35;;;;;;;5.97;100.00;102736.81;4977124;28;20057;-70
2022/01/29 01:40:58;;;;;;;114.45;45.40;;;;;;;6.07;100.00;102738.97;4994685;28;20038;-71
2022/01/29 01:43:23;;;;;;;125.43;47.97;;;;;;;5.96;100.00;102737.03;4995142;28;20046;-70
2022/01/29 01:45:48;;;;;;;123.15;47.67;;;;;;;5.99;100.00;102728.44;4994855;28;20384;-70
2022/01/29 01:48:14;;;;;;;118.38;44.03;;;;;;;5.98;100.00;102722.22;4995073;28;20488;-70
2022/01/29 01:50:40;;;;;;;118.88;45.45;;;;;;;6.06;100.00;102726.50;4994622;28;20380;-71
2022/01/29 01:53:06;;;;;;;120.32;48.00;;;;;;;6.01;100.00;102721.75;4992752;28;20388;-70
2022/01/29 01:55:32;;;;;;;110.97;44.50;;;;;;;6.10;100.00;102706.03;4994214;28;20149;-71
2022/01/29 01:57:57;;;;;;;117.28;44.72;;;;;;;6.02;100.00;102700.91;4993120;28;20514;-70
2022/01/29 02:00:24;;;;;;;136.52;46.95;;;;;;;6.00;100.00;102689.50;5008319;28;20041;-70
2022/01/29 02:02:50;;;;;;;123.03;46.92;;;;;;;5.95;100.00;102678.50;5013616;28;20102;-70
2022/01/29 02:05:15;;;;;;;117.43;44.45;;;;;;;6.05;100.00;102679.63;5013434;28;20042;-70
2022/01/29 02:07:41;;;;;;;112.38;44.97;;;;;;;6.01;100.00;102680.31;5013505;28;20029;-70
2022/01/29 02:10:09;;;;;;;131.20;48.97;;;;;;;6.04;100.00;102688.78;5013810;28;20414;-70
2022/01/29 02:12:46;;;;;;;118.45;47.13;;;;;;;6.07;100.00;102682.91;5013031;28;20577;-70
2022/01/29 02:15:12;;;;;;;119.05;46.85;;;;;;;6.07;100.00;102684.81;5011764;28;20076;-70
2022/01/29 02:17:38;;;;;;;127.75;47.50;;;;;;;6.00;100.00;102676.78;5013114;28;20106;-68
2022/01/29 02:20:04;;;;;;;118.90;48.15;;;;;;;6.06;100.00;102675.03;5002698;28;20041;-70
2022/01/29 02:22:29;;;;;;;121.50;46.55;;;;;;;6.11;100.00;102672.47;4992704;28;20046;-70
2022/01/29 02:24:55;;;;;;;116.03;47.53;;;;;;;6.07;100.00;102653.13;4993741;28;20135;-70
2022/01/29 02:27:20;;;;;;;120.85;47.03;;;;;;;6.04;100.00;102656.28;4994014;28;20135;-69
2022/01/29 02:29:48;;;;;;;138.25;48.75;;;;;;;6.03;100.00;102651.13;4976743;28;20494;-70
2022/01/29 02:32:13;;;;;;;133.73;48.33;;;;;;;5.93;100.00;102645.38;4994429;28;20256;-70
2022/01/29 02:34:40;;;;;;;134.10;47.17;;;;;;;5.97;100.00;102630.38;4994961;28;20125;-69
2022/01/29 02:37:06;;;;;;;126.35;46.88;;;;;;;6.06;100.00;102637.94;4994318;28;20053;-70
2022/01/29 02:39:31;;;;;;;124.85;47.20;;;;;;;5.98;100.00;102634.72;4995295;28;20041;-69
2022/01/29 02:41:57;;;;;;;130.10;48.85;;;;;;;5.94;100.00;102636.25;4995387;28;20050;-70
2022/01/29 02:44:23;;;;;;;129.35;48.47;;;;;;;5.91;100.00;102623.97;4994740;28;20406;-70
2022/01/29 02:49:16;;;;;;;125.55;46.85;;;;;;;5.90;100.00;102616.88;4993488;28;20034;-70
2022/01/29 02:51:47;;;;;;;137.80;49.40;;;;;;;5.95;100.00;102624.34;4993581;28;20128;-69
2022/01/29 02:54:13;;;;;;;120.53;47.45;;;;;;;5.98;100.00;102619.31;4993350;28;20052;-70
2022/01/29 02:56:38;;;;;;;123.72;46.40;;;;;;;5.95;100.00;102608.09;4993330;28;20045;-70
2022/01/29 02:59:04;;;;;;;130.18;48.40;;;;;;;5.99;100.00;102609.28;4998950;28;20041;-70
2022/01/29 03:01:29;;;;;;;135.07;48.55;;;;;;;5.95;100.00;102599.97;5013761;28;20410;-70
2022/01/29 03:03:55;;;;;;;124.25;47.90;;;;;;;5.86;100.00;102529.88;5013683;28;20037;-70
2022/01/29 03:06:21;;;;;;;121.60;47.10;;;;;;;5.92;100.00;102522.72;5013427;28;20044;-69
2022/01/29 03:08:46;;;;;;;128.10;46.05;;;;;;;5.95;100.00;102526.88;5011194;28;20049;-70
2022/01/29 03:11:12;;;;;;;124.35;44.63;;;;;;;5.88;100.00;102519.66;5011062;28;20048;-70
2022/01/29 03:13:38;;;;;;;129.10;46.17;;;;;;;5.98;100.00;102510.16;5010657;28;20068;-71
2022/01/29 03:16:03;;;;;;;110.03;43.10;;;;;;;5.98;100.00;102512.88;5011654;28;20043;-70
2022/01/29 03:18:29;;;;;;;106.38;43.47;;;;;;;5.88;100.00;102500.69;5013529;28;20566;-70
2022/01/29 03:20:54;;;;;;;131.00;45.53;;;;;;;5.93;100.00;102496.47;4994792;28;20038;-70
2022/01/29 03:23:20;;;;;;;123.57;44.20;;;;;;;5.88;100.00;102494.47;4992668;28;20406;-70
2022/01/29 03:25:45;;;;;;;112.63;42.58;;;;;;;5.92;100.00;102487.50;4993944;28;20490;-70
2022/01/29 03:28:11;;;;;;;118.97;43.33;;;;;;;5.88;100.00;102484.44;4993529;28;20116;-70
2022/01/29 03:30:36;;;;;;;125.95;42.72;;;;;;;5.87;100.00;102477.38;4994718;28;20076;-70
2022/01/29 03:33:02;;;;;;;103.22;41.88;;;;;;;5.91;100.00;102472.34;4996991;28;20369;-70
2022/01/29 03:35:27;;;;;;;107.97;40.63;;;;;;;5.97;100.00;102486.88;4995656;28;20049;-70
2022/01/29 03:37:52;;;;;;;117.53;42.67;;;;;;;5.92;100.00;102473.16;5011307;28;20044;-69
2022/01/29 03:40:18;;;;;;;103.68;41.22;;;;;;;5.90;100.00;102470.66;5016888;28;20076;-70
2022/01/29 03:42:56;;;;;;;104.78;41.92;;;;;;;5.95;100.00;102467.31;5017042;28;20187;-70
2022/01/29 03:45:21;;;;;;;112.97;41.83;;;;;;;5.99;100.00;102466.63;5016849;28;20576;-70
2022/01/29 03:47:47;;;;;;;103.80;40.47;;;;;;;6.00;100.00;102468.25;5010408;28;20484;-69
2022/01/29 03:50:12;;;;;;;104.35;41.10;;;;;;;6.04;100.00;102455.91;4996798;28;20380;-70
2022/01/29 03:52:38;;;;;;;107.30;42.15;;;;;;;6.02;100.00;102462.59;4994697;28;20116;-70
2022/01/29 03:55:05;;;;;;;104.65;40.40;;;;;;;6.04;100.00;102460.50;4994878;28;20494;-70
2022/01/29 03:57:31;;;;;;;108.07;38.40;;;;;;;6.00;100.00;102448.50;4996903;28;20177;-70
2022/01/29 03:59:56;;;;;;;98.68;39.78;;;;;;;6.05;100.00;102457.56;4995055;28;20045;-70
2022/01/29 04:02:21;;;;;;;98.50;40.58;;;;;;;6.01;100.00;102442.00;5011691;28;20045;-68
2022/01/29 04:04:47;;;;;;;97.70;40.28;;;;;;;6.10;100.00;102454.13;5012821;28;20352;-70
2022/01/29 04:07:12;;;;;;;103.63;39.30;;;;;;;6.08;100.00;102453.56;4998032;28;20045;-71
2022/01/29 04:09:39;;;;;;;98.40;37.78;;;;;;;6.06;100.00;102447.53;4997317;28;20038;-69
2022/01/29 04:12:05;;;;;;;100.65;38.72;;;;;;;6.08;100.00;102457.09;4997248;28;20159;-70
2022/01/29 04:14:37;;;;;;;98.45;39.28;;;;;;;6.07;100.00;102443.78;4996900;28;20052;-69
2022/01/29 04:17:03;;;;;;;99.72;38.10;;;;;;;6.10;100.00;102448.72;4997733;28;20217;-70
2022/01/29 04:19:29;;;;;;;101.78;39.97;;;;;;;6.11;100.00;102444.97;5016293;28;20480;-70
2022/01/29 04:21:55;;;;;;;109.95;42.17;;;;;;;6.11;100.00;102453.09;5017686;28;20142;-70
2022/01/29 04:24:20;;;;;;;112.40;41.67;;;;;;;6.12;100.00;102449.31;5018040;28;20045;-68
2022/01/29 04:26:46;;;;;;;112.85;42.90;;;;;;;6.16;100.00;102442.34;5026428;28;20049;-70
2022/01/29 04:29:11;;;;;;;115.78;41.70;;;;;;;6.09;100.00;102433.53;5025121;28;20042;-68
2022/01/29 04:34:22;;;;;;;116.45;42.40;;;;;;;6.12;100.00;102419.53;5000088;28;20450;-69
2022/01/29 04:36:47;;;;;;;134.10;42.50;;;;;;;6.20;100.00;102415.66;5000469;28;20046;-69
2022/01/29 04:39:13;;;;;;;132.57;45.85;;;;;;;6.15;100.00;102419.06;5000472;28;20110;-69
2022/01/29 04:41:38;;;;;;;128.68;45.15;;;;;;;6.13;100.00;102415.75;5000692;28;20045;-69
2022/01/29 04:44:04;;;;;;;152.02;48.97;;;;;;;6.15;100.00;102410.09;5002462;28;20049;-68
2022/01/29 04:46:30;;;;;;;167.70;52.60;;;;;;;6.17;100.00;102399.84;5000388;28;20466;-69
2022/01/29 04:48:55;;;;;;;162.13;49.65;;;;;;;6.27;100.00;102398.19;4999215;28;20072;-69
2022/01/29 04:51:21;;;;;;;154.85;49.90;;;;;;;6.15;100.00;102388.44;4998034;28;20075;-69
2022/01/29 04:53:47;;;;;;;159.95;50.83;;;;;;;6.17;100.00;102383.59;4996483;28;20313;-69
2022/01/29 04:56:13;;;;;;;166.82;51.30;;;;;;;6.16;100.00;102388.19;4995320;28;20049;-69
2022/01/29 04:58:38;;;;;;;164.23;51.80;;;;;;;6.25;100.00;102396.78;5000323;28;20091;-69
2022/01/29 05:01:04;;;;;;;166.20;54.95;;;;;;;6.26;100.00;102398.44;5016414;28;20044;-69
2022/01/29 05:03:30;;;;;;;165.40;56.40;;;;;;;6.27;100.00;102391.97;5018467;28;20111;-69
2022/01/29 05:05:56;;;;;;;195.65;57.47;;;;;;;6.30;100.00;102389.59;5018489;28;20045;-68
2022/01/29 05:08:22;;;;;;;176.57;53.42;;;;;;;6.34;100.00;102392.66;5016546;28;20034;-69
2022/01/29 05:10:47;;;;;;;186.55;56.03;;;;;;;6.31;100.00;102387.69;5015919;28;20095;-69
2022/01/29 05:13:17;;;;;;;188.52;53.85;;;;;;;6.33;100.00;102383.69;5015406;28;20542;-69
2022/01/29 05:29:22;;;;;;;190.10;57.85;;;;;;;6.45;100.00;102364.72;4994828;28;20154;-69
2022/01/29 05:31:51;;;;;;;197.88;55.17;;;;;;;6.39;100.00;102364.84;4994376;28;20042;-70
2022/01/29 05:34:18;;;;;;;209.13;59.00;;;;;;;6.47;100.00;102357.19;5011988;28;20048;-70
2022/01/29 05:36:44;;;;;;;200.35;60.05;;;;;;;6.46;100.00;102354.72;5014250;28;20473;-69
2022/01/29 05:39:09;;;;;;;194.65;58.22;;;;;;;6.50;100.00;102364.00;5014272;28;20044;-69
2022/01/29 05:41:35;;;;;;;198.75;58.80;;;;;;;6.48;100.00;102352.56;5012873;28;20108;-69
2022/01/29 05:44:00;;;;;;;189.27;58.55;;;;;;;6.50;100.00;102355.88;5012091;28;20033;-69
2022/01/29 05:46:25;;;;;;;195.15;57.40;;;;;;;6.56;100.00;102354.94;5013539;28;20481;-69
2022/01/29 05:48:51;;;;;;;207.07;58.72;;;;;;;6.57;100.00;102360.13;5012148;28;20520;-69
2022/01/29 05:51:16;;;;;;;191.40;56.85;;;;;;;6.64;100.00;102362.69;5013305;28;20029;-70
2022/01/29 05:53:42;;;;;;;212.13;60.70;;;;;;;6.59;100.00;102357.16;5014350;28;20603;-69
2022/01/29 05:56:07;;;;;;;196.32;59.22;;;;;;;6.61;100.00;102351.50;5014451;28;20041;-69
2022/01/29 05:58:33;;;;;;;205.13;58.38;;;;;;;6.66;100.00;102355.16;5011839;28;20049;-70
2022/01/29 06:00:58;;;;;;;200.90;57.55;;;;;;;6.70;100.00;102345.47;4994842;28;20053;-71
2022/01/29 06:03:24;;;;;;;206.43;60.00;;;;;;;6.66;100.00;102338.03;4992337;28;20053;-69
2022/01/29 06:05:49;;;;;;;191.45;56.63;;;;;;;6.70;100.00;102334.63;4994274;28;20038;-69
2022/01/29 06:08:15;;;;;;;198.20;55.50;;;;;;;6.74;100.00;102333.06;4994670;28;20080;-70
2022/01/29 06:10:40;;;;;;;187.77;57.45;;;;;;;6.75;100.00;102332.00;4994393;28;20042;-69
2022/01/29 06:13:11;;;;;;;174.30;54.20;;;;;;;6.76;100.00;102325.50;4994914;28;20050;-69
2022/01/29 06:15:45;;;;;;;190.88;55.67;;;;;;;6.79;100.00;102324.22;4995086;28;20033;-69
2022/01/29 06:18:14;;;;;;;183.90;55.00;;;;;;;6.78;100.00;102322.56;4994542;28;20046;-69
2022/01/29 06:20:41;;;;;;;185.05;56.10;;;;;;;6.87;100.00;102314.88;5006637;28;20241;-69
2022/01/29 06:23:06;;;;;;;170.95;53.20;;;;;;;6.91;100.00;102307.88;5012666;28;20347;-70
2022/01/29 06:25:32;;;;;;;184.40;53.90;;;;;;;6.89;100.00;102310.00;5014294;28;20037;-69
2022/01/29 06:27:58;;;;;;;172.43;55.42;;;;;;;6.97;100.00;102318.59;5012981;28;20904;-69
2022/01/29 06:30:24;;;;;;;189.30;57.70;;;;;;;6.97;100.00;102312.34;5012969;28;20049;-70
2022/01/29 06:32:49;;;;;;;189.40;56.22;;;;;;;6.99;100.00;102310.22;5014753;28;20037;-69
2022/01/29 06:35:15;;;;;;;176.93;53.80;;;;;;;6.98;100.00;102303.13;5013754;28;20328;-69
2022/01/29 06:37:41;;;;;;;174.98;53.53;;;;;;;7.04;100.00;102307.59;5013095;28;20359;-69
2022/01/29 06:40:07;;;;;;;185.40;54.88;;;;;;;7.10;100.00;102306.63;5012972;28;20033;-69
2022/01/29 06:42:33;;;;;;;168.27;50.70;;;;;;;7.05;100.00;102303.81;5012990;28;20136;-70
2022/01/29 06:44:59;;;;;;;174.43;54.58;;;;;;;7.12;100.00;102309.91;5012767;28;20045;-69
2022/01/29 06:47:24;;;;;;;180.68;55.47;;;;;;;7.19;100.00;102312.47;5013511;28;20459;-69
2022/01/29 06:49:49;;;;;;;165.88;54.28;;;;;;;7.14;100.00;102302.34;5014125;28;20045;-69
2022/01/29 06:52:15;;;;;;;171.45;53.22;;;;;;;7.18;100.00;102306.19;5013313;28;20057;-69
2022/01/29 06:54:40;;;;;;;169.45;50.97;;;;;;;7.19;100.00;102299.72;5013287;28;20049;-70
2022/01/29 06:57:06;;;;;;;159.05;51.72;;;;;;;7.31;100.00;102304.25;5012184;28;20033;-70
2022/01/29 06:59:31;;;;;;;153.70;49.72;;;;;;;7.32;100.00;102309.44;5012769;28;20052;-69
2022/01/29 07:01:57;;;;;;;156.13;51.40;;;;;;;7.36;100.00;102298.91;5012152;28;20033;-70
2022/01/29 07:04:22;;;;;;;144.10;48.75;;;;;;;7.38;100.00;102296.78;5012965;28;20052;-69
2022/01/29 07:06:48;;;;;;;154.80;49.05;;;;;;;7.38;100.00;102286.72;5012287;28;20044;-70
2022/01/29 07:09:13;;;;;;;162.30;50.08;;;;;;;7.45;100.00;102289.31;5012050;28;20042;-70
2022/01/29 07:11:41;;;;;;;138.80;46.40;;;;;;;7.45;100.00;102281.16;5012965;28;20033;-69
2022/01/29 07:14:06;;;;;;;145.90;46.28;;;;;;;7.49;100.00;102285.00;5012821;28;20048;-70
2022/01/29 07:16:35;;;;;;;143.90;45.95;;;;;;;7.52;100.00;102295.38;5011864;28;20045;-70
2022/01/29 07:19:04;;;;;;;137.60;47.17;;;;;;;7.48;100.00;102294.22;5012777;28;20413;-70
2022/01/29 07:21:30;;;;;;;132.93;45.83;;;;;;;7.52;100.00;102292.66;4993578;28;20061;-70
2022/01/29 07:23:55;;;;;;;140.57;46.78;;;;;;;7.57;100.00;102290.03;4993884;28;20487;-70
2022/01/29 07:26:21;;;;;;;131.80;46.47;;;;;;;7.58;100.00;102280.81;4993670;28;20230;-70
2022/01/29 07:28:46;;;;;;;122.63;43.88;;;;;;;7.61;100.00;102285.75;4991903;28;20430;-70
2022/01/29 07:31:12;;;;;;;123.75;45.22;;;;;;;7.65;100.00;102278.75;4993031;28;20399;-70
2022/01/29 07:33:37;;;;;;;134.63;44.10;;;;;;;7.69;100.00;102282.59;4993010;28;20133;-70
2022/01/29 07:36:03;;;;;;;112.32;41.88;;;;;;;7.65;100.00;102280.63;4991797;28;20259;-70
2022/01/29 07:38:28;;;;;;;119.28;42.92;;;;;;;7.69;100.00;102282.59;4993623;28;20041;-70
2022/01/29 07:40:54;;;;;;;122.85;42.70;;;;;;;7.71;100.00;102276.94;4993436;28;20049;-69
2022/01/29 07:43:19;;;;;;;133.20;43.45;;;;;;;7.67;100.00;102273.88;4993328;28;20505;-71
2022/01/29 07:45:45;;;;;;;110.53;42.28;;;;;;;7.62;100.00;102265.69;4993402;28;20104;-69
2022/01/29 07:48:11;;;;;;;107.55;40.42;;;;;;;7.69;100.00;102269.03;4991971;28;20493;-70
2022/01/29 07:50:37;;;;;;;115.43;38.75;;;;;;;7.74;100.00;102262.88;4993456;28;20029;-69
2022/01/29 07:53:02;;;;;;;107.78;38.35;;;;;;;7.71;100.00;102264.19;4992943;28;20054;-70
2022/01/29 07:55:31;;;;;;;122.43;40.60;;;;;;;7.78;100.00;102260.47;5002820;28;20037;-71
2022/01/29 07:58:01;;;;;;;106.38;35.28;;;;;;;7.82;100.00;102258.88;5007590;28;20041;-70
2022/01/29 08:00:27;;;;;;;101.03;36.95;;;;;;;7.79;100.00;102262.09;5006434;28;20490;-69
2022/01/29 08:02:53;;;;;;;93.35;35.05;;;;;;;7.88;100.00;102268.75;5011672;28;20121;-69
2022/01/29 08:05:18;;;;;;;100.70;35.88;;;;;;;7.85;100.00;102258.38;5012323;28;20033;-70
2022/01/29 08:07:43;;;;;;;88.45;33.10;;;;;;;7.86;100.00;102260.84;5012569;28;20443;-70
2022/01/29 08:10:09;;;;;;;110.30;35.60;;;;;;;7.89;100.00;102254.09;5011709;28;20125;-70
2022/01/29 08:12:34;;;;;;;88.45;34.60;;;;;;;7.91;100.00;102262.81;5011179;28;20034;-70
2022/01/29 08:15:02;;;;;;;83.68;33.10;;;;;;;7.91;100.00;102262.81;5010746;28;20479;-69
2022/01/29 08:17:27;;;;;;;92.38;33.33;;;;;;;7.92;100.00;102248.16;5008007;28;20136;-70
2022/01/29 08:19:53;;;;;;;85.82;30.60;;;;;;;7.96;100.00;102248.47;5003786;28;20041;-69
2022/01/29 08:22:18;;;;;;;98.03;33.90;;;;;;;8.02;100.00;102242.84;5015939;28;20447;-69
2022/01/29 08:24:44;;;;;;;76.88;30.98;;;;;;;8.04;100.00;102243.44;5006341;28;20049;-71
2022/01/29 08:27:10;;;;;;;80.88;31.67;;;;;;;8.09;100.00;102237.25;5007701;28;20097;-70
2022/01/29 08:29:35;;;;;;;69.82;28.25;;;;;;;8.12;100.00;102232.13;5012420;28;20046;-69
2022/01/29 08:32:01;;;;;;;73.97;28.00;;;;;;;8.10;100.00;102231.56;5014522;28;20076;-69
2022/01/29 08:34:27;;;;;;;71.47;27.58;;;;;;;8.24;100.00;102232.00;4996016;28;20136;-70
2022/01/29 08:36:53;;;;;;;65.90;25.40;;;;;;;8.22;100.00;102231.44;5009560;28;20045;-69
2022/01/29 08:39:18;;;;;;;70.40;26.52;;;;;;;8.35;100.00;102227.53;4996620;28;20144;-70
2022/01/29 08:41:44;;;;;;;61.75;24.75;;;;;;;8.37;100.00;102225.34;5015432;28;20045;-70
2022/01/29 08:44:09;;;;;;;56.35;25.40;;;;;;;8.49;100.00;102223.31;5015248;28;20108;-69
2022/01/29 08:46:34;;;;;;;56.08;24.05;;;;;;;8.49;100.00;102226.03;5033296;22;20251;-70
2022/01/29 08:49:00;;;;;;;57.35;24.45;;;;;;;8.47;100.00;102216.53;5035308;28;20048;-70
2022/01/29 08:51:25;;;;;;;51.60;22.65;;;;;;;8.50;100.00;102221.44;5034324;28;20087;-70
2022/01/29 08:53:51;;;;;;;47.95;22.40;;;;;;;8.57;100.00;102214.72;5034826;28;20040;-70
2022/01/29 08:56:16;;;;;;;53.05;23.10;;;;;;;8.58;100.00;102213.66;5035063;28;20504;-70
2022/01/29 08:58:43;;;;;;;51.22;22.42;;;;;;;8.58;100.00;102213.66;5033126;28;20218;-71
2022/01/29 09:01:09;;;;;;;49.95;22.67;;;;;;;8.65;100.00;102204.47;5033433;28;20140;-70
2022/01/29 09:03:36;;;;;;;50.63;19.90;;;;;;;8.55;100.00;102202.44;5030568;28;20148;-70
2022/01/29 09:06:03;;;;;;;52.10;21.40;;;;;;;8.63;100.00;102209.34;5031986;28;20305;-70
2022/01/29 09:08:28;;;;;;;50.03;22.42;;;;;;;8.76;100.00;102208.94;5031136;28;20047;-70
2022/01/29 09:10:57;;;;;;;49.75;22.20;;;;;;;8.72;100.00;102197.72;5030479;28;20037;-69
2022/01/29 09:13:26;;;;;;;50.70;21.27;;;;;;;8.85;100.00;102196.50;5011630;28;20327;-70
2022/01/29 09:15:51;;;;;;;49.50;21.92;;;;;;;8.78;100.00;102201.31;5012266;28;20056;-70
2022/01/29 09:18:17;;;;;;;50.17;22.17;;;;;;;8.71;100.00;102198.00;5012457;28;20053;-70
2022/01/29 09:20:42;;;;;;;42.63;19.55;;;;;;;8.67;100.00;102184.09;5026290;28;20479;-70
2022/01/29 09:23:11;;;;;;;46.22;21.13;;;;;;;8.76;100.00;102192.63;5031626;28;20040;-71
2022/01/29 09:25:37;;;;;;;46.13;20.70;;;;;;;8.71;100.00;102187.13;5015469;28;20103;-70
2022/01/29 09:28:04;;;;;;;48.28;21.63;;;;;;;8.73;100.00;102198.56;5021949;28;20090;-70
2022/01/29 09:30:31;;;;;;;42.65;20.08;;;;;;;8.79;100.00;102201.06;5030143;28;20037;-70
2022/01/29 09:32:56;;;;;;;52.28;21.80;;;;;;;8.77;100.00;102205.94;5024618;28;20145;-70
2022/01/29 09:35:22;;;;;;;47.88;21.33;;;;;;;8.76;100.00;102203.50;5032680;28;20467;-70
2022/01/29 09:37:48;;;;;;;45.00;20.38;;;;;;;8.80;100.00;102215.50;5021155;28;20486;-70
2022/01/29 09:40:14;;;;;;;46.05;21.25;;;;;;;8.83;100.00;102199.47;5017630;28;20529;-70
2022/01/29 09:42:40;;;;;;;46.97;21.63;;;;;;;8.95;100.00;102207.44;5022406;28;20429;-69
2022/01/29 09:45:08;;;;;;;42.45;20.77;;;;;;;8.91;100.00;102197.38;5009349;28;20416;-70
2022/01/29 09:47:35;;;;;;;46.88;21.00;;;;;;;8.92;100.00;102199.81;5019531;28;20138;-70
2022/01/29 09:50:00;;;;;;;40.35;20.70;;;;;;;8.98;100.00;102196.06;5025678;28;20048;-70
2022/01/29 09:52:26;;;;;;;49.72;21.63;;;;;;;9.06;100.00;102195.56;5031675;28;20439;-70
2022/01/29 09:54:51;;;;;;;42.80;20.80;;;;;;;9.00;100.00;102199.34;5014629;28;20462;-71
2022/01/29 09:57:17;;;;;;;40.25;19.90;;;;;;;9.00;100.00;102202.06;5026028;28;20040;-70
2022/01/29 09:59:43;;;;;;;43.58;21.02;;;;;;;8.99;100.00;102197.72;5024331;28;20036;-70
2022/01/29 10:02:14;;;;;;;39.33;20.58;;;;;;;9.12;100.00;102192.91;5018792;28;20482;-70
2022/01/29 10:04:48;;;;;;;37.45;19.60;;;;;;;9.16;100.00;102196.72;5030805;28;20171;-70
2022/01/29 10:07:32;;;;;;;40.00;19.77;;;;;;;9.14;100.00;102188.03;5026468;28;20052;-70
2022/01/29 10:10:00;;;;;;;36.92;17.73;;;;;;;9.20;100.00;102187.78;5025203;28;20033;-70
2022/01/29 10:12:37;;;;;;;35.10;17.27;;;;;;;9.26;100.00;102186.75;5032138;28;20033;-70
2022/01/29 10:15:06;;;;;;;26.67;16.52;;;;;;;9.47;100.00;102181.44;5025320;28;20037;-69
2022/01/29 10:17:37;;;;;;;25.70;15.48;;;;;;;9.50;100.00;102184.44;5031563;28;20045;-69
2022/01/29 10:20:08;;;;;;;28.83;16.05;;;;;;;9.44;100.00;102182.78;5030316;28;20044;-70
2022/01/29 10:22:34;;;;;;;32.70;15.80;;;;;;;9.51;100.00;102172.50;5026938;28;20155;-69
2022/01/29 10:25:04;;;;;;;23.95;14.57;;;;;;;9.42;100.00;102163.16;5020934;28;20485;-69
2022/01/29 10:27:29;;;;;;;26.60;15.98;;;;;;;9.43;100.00;102174.88;5027963;28;20056;-69
2022/01/29 10:30:00;;;;;;;24.98;13.48;;;;;;;9.44;100.00;102157.47;5029937;28;20140;-69
2022/01/29 10:32:25;;;;;;;22.90;13.82;;;;;;;9.39;100.00;102141.09;5025391;28;20397;-69
2022/01/29 10:34:55;;;;;;;24.63;13.82;;;;;;;9.35;100.00;102129.09;5027849;28;20462;-69
2022/01/29 10:37:25;;;;;;;25.80;12.65;;;;;;;9.40;100.00;102124.50;5029687;28;20037;-71
2022/01/29 10:39:56;;;;;;;19.80;12.02;;;;;;;9.47;100.00;102132.41;5024305;28;20243;-71
2022/01/29 10:42:24;;;;;;;22.05;11.35;;;;;;;9.54;100.00;102127.56;5022885;28;20055;-70
2022/01/29 10:44:54;;;;;;;21.67;11.30;;;;;;;9.63;100.00;102119.69;5027582;28;20048;-71
2022/01/29 10:47:19;;;;;;;15.73;10.20;;;;;;;9.76;100.00;102124.66;5029085;28;20118;-70
2022/01/29 10:49:58;;;;;;;17.35;10.35;;;;;;;9.69;100.00;102124.09;5024655;28;20033;-70
2022/01/29 10:52:34;;;;;;;18.90;9.77;;;;;;;9.79;100.00;102123.31;5029570;28;20152;-71
2022/01/29 10:55:06;;;;;;;15.68;9.95;;;;;;;9.82;100.00;102103.69;5029533;28;20800;-68
2022/01/29 10:57:42;;;;;;;14.68;9.45;;;;;;;9.98;100.00;102100.75;5022170;28;20050;-68
2022/01/29 11:00:24;;;;;;;15.13;8.38;;;;;;;10.11;100.00;102095.88;5027481;28;20148;-69
2022/01/29 11:02:52;;;;;;;19.05;9.02;;;;;;;10.01;100.00;102095.88;5026924;28;20045;-69
2022/01/29 11:05:17;;;;;;;16.38;7.90;;;;;;;9.97;100.00;102096.38;5027962;28;20800;-69
2022/01/29 11:07:51;;;;;;;14.75;8.18;;;;;;;9.94;100.00;102094.19;5025112;28;20401;-69
2022/01/29 11:10:18;;;;;;;14.80;7.97;;;;;;;9.97;100.00;102099.09;5025327;28;20048;-70
2022/01/29 11:12:46;;;;;;;15.70;7.63;;;;;;;10.07;100.00;102095.59;5029734;28;20477;-69
2022/01/29 11:15:15;;;;;;;12.75;7.32;;;;;;;10.24;100.00;102091.78;5024672;28;20360;-68
2022/01/29 11:17:40;;;;;;;11.40;6.57;;;;;;;10.16;100.00;102090.44;5026970;28;20142;-69
2022/01/29 11:20:06;;;;;;;10.27;6.50;;;;;;;10.23;100.00;102082.81;5027125;28;20568;-69